createdAt,value
2022-12-08T00:01:06.809Z,4.95
2022-12-08T00:03:34.317Z,4.75
2022-12-08T00:06:21.875Z,4.03
2022-12-08T00:09:07.927Z,5.80
2022-12-08T00:11:35.208Z,4.00
2022-12-08T00:14:02.728Z,4.13
2022-12-08T00:16:29.884Z,5.57
2022-12-08T00:18:57.067Z,6.38
2022-12-08T00:21:24.241Z,3.95
2022-12-08T00:23:51.360Z,5.32
2022-12-08T00:26:18.458Z,6.60
2022-12-08T00:28:45.546Z,5.07
2022-12-08T00:31:12.819Z,6.47
2022-12-08T00:33:40.087Z,5.28
2022-12-08T00:36:10.239Z,5.22
2022-12-08T00:38:37.819Z,7.25
2022-12-08T00:41:07.745Z,6.65
2022-12-08T00:43:34.836Z,5.32
2022-12-08T00:46:02.014Z,5.60
2022-12-08T00:48:29.175Z,5.35
2022-12-08T00:50:56.267Z,7.80
2022-12-08T00:53:23.396Z,5.20
2022-12-08T00:55:50.525Z,7.05
2022-12-08T00:58:17.653Z,6.00
2022-12-08T01:00:45.196Z,3.90
2022-12-08T01:03:12.860Z,4.63
2022-12-08T01:05:40.229Z,4.18
2022-12-08T01:08:07.762Z,4.70
2022-12-08T01:10:38.539Z,3.38
2022-12-08T01:13:06.001Z,5.47
2022-12-08T01:15:33.086Z,6.18
2022-12-08T01:18:00.190Z,5.70
2022-12-08T01:20:27.317Z,4.55
2022-12-08T01:22:54.399Z,2.92
2022-12-08T01:25:21.559Z,3.88
2022-12-08T01:27:48.727Z,4.20
2022-12-08T01:30:15.921Z,2.78
2022-12-08T01:32:43.062Z,4.38
2022-12-08T01:35:10.191Z,2.67
2022-12-08T01:37:37.400Z,4.60
2022-12-08T01:40:04.895Z,3.95
2022-12-08T01:42:34.452Z,3.47
2022-12-08T01:45:02.971Z,2.40
2022-12-08T01:47:34.105Z,1.88
2022-12-08T01:50:01.974Z,2.50
2022-12-08T01:52:37.230Z,2.13
2022-12-08T01:55:07.151Z,3.20
2022-12-08T01:57:37.173Z,3.47
2022-12-08T02:00:08.563Z,2.97
2022-12-08T02:02:49.629Z,3.00
2022-12-08T02:05:17.060Z,3.60
2022-12-08T02:07:44.875Z,4.68
2022-12-08T02:10:14.935Z,4.55
2022-12-08T02:12:42.006Z,3.05
2022-12-08T02:15:09.395Z,5.03
2022-12-08T02:18:02.961Z,4.60
2022-12-08T02:20:42.814Z,4.90
2022-12-08T02:23:12.759Z,6.05
2022-12-08T02:25:39.880Z,5.20
2022-12-08T02:28:13.151Z,6.30
2022-12-08T02:30:48.456Z,5.50
2022-12-08T02:33:34.031Z,7.70
2022-12-08T02:36:05.869Z,7.57
2022-12-08T02:38:36.119Z,4.80
2022-12-08T02:41:21.374Z,7.07
2022-12-08T02:43:49.633Z,4.05
2022-12-08T02:46:20.069Z,6.82
2022-12-08T02:48:48.137Z,5.35
2022-12-08T02:51:15.245Z,4.47
2022-12-08T02:53:42.528Z,5.53
2022-12-08T02:56:09.597Z,7.03
2022-12-08T02:58:48.709Z,3.95
2022-12-08T03:01:15.913Z,2.92
2022-12-08T03:03:48.393Z,2.97
2022-12-08T03:06:34.111Z,2.70
2022-12-08T03:09:07.968Z,3.70
2022-12-08T03:11:41.233Z,3.47
2022-12-08T03:14:09.565Z,3.30
2022-12-08T03:16:39.013Z,4.30
2022-12-08T03:19:11.408Z,2.90
2022-12-08T03:21:40.258Z,1.98
2022-12-08T03:24:08.372Z,3.47
2022-12-08T03:26:39.374Z,2.05
2022-12-08T03:29:06.982Z,1.80
2022-12-08T03:31:38.251Z,2.60
2022-12-08T03:34:05.904Z,1.60
2022-12-08T03:36:33.240Z,1.65
2022-12-08T03:39:00.671Z,1.58
2022-12-08T03:41:27.872Z,3.83
2022-12-08T03:43:56.063Z,1.02
2022-12-08T03:48:50.700Z,0.65
2022-12-08T03:51:18.267Z,2.08
2022-12-08T03:53:45.596Z,1.58
2022-12-08T03:56:20.320Z,3.15
2022-12-08T03:58:47.435Z,2.83
2022-12-08T04:01:14.555Z,1.55
2022-12-08T04:03:41.671Z,3.17
2022-12-08T04:06:08.979Z,2.90
2022-12-08T04:08:36.109Z,1.83
2022-12-08T04:11:03.245Z,2.83
2022-12-08T04:13:30.384Z,2.40
2022-12-08T04:15:57.558Z,1.55
2022-12-08T04:18:24.700Z,6.30
2022-12-08T04:20:51.822Z,3.75
2022-12-08T04:23:18.911Z,4.53
2022-12-08T04:25:46.093Z,2.97
2022-12-08T04:28:13.418Z,5.00
2022-12-08T04:30:40.503Z,3.70
2022-12-08T04:33:07.561Z,4.07
2022-12-08T04:35:34.760Z,3.15
2022-12-08T04:38:02.047Z,3.80
2022-12-08T04:40:29.132Z,3.78
2022-12-08T04:42:56.246Z,2.75
2022-12-08T04:45:23.321Z,2.53
2022-12-08T04:47:50.423Z,1.48
2022-12-08T04:50:17.558Z,2.60
2022-12-08T04:52:44.612Z,2.25
2022-12-08T04:55:11.718Z,5.25
2022-12-08T04:57:38.824Z,2.50
2022-12-08T05:00:07.219Z,1.55
2022-12-08T05:02:34.587Z,2.17
2022-12-08T05:05:01.841Z,1.27
2022-12-08T05:07:28.947Z,1.02
2022-12-08T05:09:56.088Z,1.98
2022-12-08T05:12:23.203Z,0.90
2022-12-08T05:14:50.639Z,1.42
2022-12-08T05:17:18.530Z,1.13
2022-12-08T05:19:45.662Z,1.70
2022-12-08T05:22:12.835Z,1.92
2022-12-08T05:24:45.692Z,0.77
2022-12-08T05:27:14.473Z,4.30
2022-12-08T05:29:41.596Z,2.00
2022-12-08T05:32:08.775Z,2.92
2022-12-08T05:34:35.921Z,3.05
2022-12-08T05:37:03.042Z,2.88
2022-12-08T05:39:30.152Z,2.22
2022-12-08T05:41:57.239Z,2.63
2022-12-08T05:44:24.327Z,3.95
2022-12-08T05:46:51.512Z,0.50
2022-12-08T05:49:18.773Z,1.02
2022-12-08T05:51:45.861Z,1.75
2022-12-08T05:54:14.139Z,2.53
2022-12-08T05:56:41.266Z,3.90
2022-12-08T05:59:08.667Z,0.77
2022-12-08T06:01:36.228Z,3.33
2022-12-08T06:04:04.947Z,1.25
2022-12-08T06:06:32.058Z,2.03
2022-12-08T06:08:59.235Z,2.05
2022-12-08T06:11:28.404Z,1.65
2022-12-08T06:16:24.404Z,1.88
2022-12-08T06:18:51.670Z,2.65
2022-12-08T06:21:19.662Z,2.33
2022-12-08T06:23:50.310Z,3.30
2022-12-08T06:26:17.557Z,2.50
2022-12-08T06:28:44.983Z,2.60
2022-12-08T06:31:15.311Z,1.60
2022-12-08T06:33:42.877Z,4.80
2022-12-08T06:36:12.460Z,1.88
2022-12-08T06:38:43.277Z,3.17
2022-12-08T06:41:11.104Z,1.27
2022-12-08T06:43:38.483Z,1.17
2022-12-08T06:46:06.516Z,2.80
2022-12-08T06:48:33.717Z,2.90
2022-12-08T06:51:27.161Z,2.53
2022-12-08T06:53:54.274Z,1.58
2022-12-08T06:56:23.898Z,1.50
2022-12-08T06:58:52.947Z,5.85
2022-12-08T07:01:20.393Z,3.22
2022-12-08T07:03:47.929Z,3.67
2022-12-08T07:06:16.867Z,1.73
2022-12-08T07:08:44.008Z,2.60
2022-12-08T07:11:15.296Z,2.65
2022-12-08T07:13:45.338Z,2.55
2022-12-08T07:16:13.093Z,1.88
2022-12-08T07:18:41.562Z,2.80
2022-12-08T07:21:10.337Z,2.35
2022-12-08T07:23:37.842Z,1.60
2022-12-08T07:26:06.036Z,0.82
2022-12-08T07:28:33.520Z,1.10
2022-12-08T07:31:00.895Z,5.28
2022-12-08T07:33:28.407Z,2.05
2022-12-08T07:35:59.231Z,2.58
2022-12-08T07:38:26.820Z,2.08
2022-12-08T07:40:54.308Z,1.05
2022-12-08T07:43:22.095Z,2.50
2022-12-08T07:45:49.747Z,1.13
2022-12-08T07:48:17.029Z,3.03
2022-12-08T07:50:44.644Z,2.80
2022-12-08T07:53:11.847Z,2.95
2022-12-08T07:55:42.684Z,1.75
2022-12-08T07:58:09.899Z,3.58
2022-12-08T08:00:37.310Z,2.97
2022-12-08T08:03:04.575Z,2.92
2022-12-08T08:05:31.728Z,1.15
2022-12-08T08:07:58.904Z,3.20
2022-12-08T08:10:26.086Z,1.33
2022-12-08T08:12:53.208Z,1.60
2022-12-08T08:15:21.357Z,1.35
2022-12-08T08:17:52.092Z,1.30
2022-12-08T08:20:19.749Z,1.02
2022-12-08T08:22:47.586Z,1.17
2022-12-08T08:25:15.335Z,1.85
2022-12-08T08:27:43.017Z,1.52
2022-12-08T08:30:16.559Z,3.55
2022-12-08T08:32:46.925Z,2.53
2022-12-08T08:35:14.133Z,2.67
2022-12-08T08:37:44.369Z,1.30
2022-12-08T08:40:15.623Z,2.28
2022-12-08T08:42:42.722Z,1.48
2022-12-08T08:45:09.985Z,1.17
2022-12-08T08:47:37.130Z,3.78
2022-12-08T08:50:04.766Z,1.98
2022-12-08T08:52:32.136Z,1.55
2022-12-08T08:54:59.404Z,3.28
2022-12-08T08:57:26.668Z,2.22
2022-12-08T08:59:54.151Z,1.25
2022-12-08T09:02:21.702Z,3.60
2022-12-08T09:04:48.973Z,1.55
2022-12-08T09:07:16.497Z,2.58
2022-12-08T09:09:44.142Z,3.30
2022-12-08T09:12:11.352Z,3.42
2022-12-08T09:14:38.577Z,6.55
2022-12-08T09:17:06.158Z,2.80
2022-12-08T09:19:33.333Z,2.00
2022-12-08T09:22:00.459Z,2.22
2022-12-08T09:24:27.614Z,1.65
2022-12-08T09:26:54.861Z,2.13
2022-12-08T09:29:21.992Z,4.25
2022-12-08T09:31:49.151Z,2.42
2022-12-08T09:34:16.305Z,3.78
2022-12-08T09:36:43.507Z,2.00
2022-12-08T09:39:10.641Z,4.45
2022-12-08T09:41:48.194Z,5.00
2022-12-08T09:44:26.997Z,3.67
2022-12-08T09:46:56.161Z,3.13
2022-12-08T09:49:25.162Z,4.55
2022-12-08T09:51:52.254Z,2.20
2022-12-08T09:54:21.570Z,3.72
2022-12-08T09:56:49.715Z,2.67
2022-12-08T09:59:16.867Z,2.33
2022-12-08T10:01:44.114Z,2.00
2022-12-08T10:04:20.850Z,1.60
2022-12-08T10:06:52.762Z,3.95
2022-12-08T10:09:26.644Z,1.30
2022-12-08T10:12:06.133Z,2.33
2022-12-08T10:14:43.624Z,1.70
2022-12-08T10:17:15.279Z,1.88
2022-12-08T10:19:43.161Z,1.92
2022-12-08T10:22:23.815Z,2.42
2022-12-08T10:24:53.940Z,1.15
2022-12-08T10:27:21.095Z,1.60
2022-12-08T10:29:48.259Z,0.80
2022-12-08T10:32:22.943Z,2.72
2022-12-08T10:35:00.822Z,1.05
2022-12-08T10:37:27.976Z,0.63
2022-12-08T10:40:24.586Z,1.38
2022-12-08T10:42:53.023Z,1.02
2022-12-08T10:45:25.994Z,1.63
2022-12-08T10:47:57.731Z,1.05
2022-12-08T10:50:29.835Z,2.33
2022-12-08T10:53:01.360Z,0.75
2022-12-08T10:55:29.337Z,1.33
2022-12-08T10:57:56.626Z,1.75
2022-12-08T11:00:27.654Z,1.85
2022-12-08T11:02:57.874Z,2.13
2022-12-08T11:05:27.795Z,1.80
2022-12-08T11:07:55.721Z,1.45
2022-12-08T11:10:28.980Z,2.50
2022-12-08T11:12:57.926Z,1.73
2022-12-08T11:15:25.169Z,2.47
2022-12-08T11:18:00.922Z,3.03
2022-12-08T11:20:28.171Z,2.88
2022-12-08T11:22:56.470Z,2.50
2022-12-08T11:25:27.477Z,1.90
2022-12-08T11:27:57.360Z,3.95
2022-12-08T11:30:25.709Z,2.03
2022-12-08T11:32:57.394Z,1.58
2022-12-08T11:35:35.527Z,3.17
2022-12-08T11:38:20.571Z,4.35
2022-12-08T11:40:50.352Z,3.00
2022-12-08T11:43:21.982Z,4.07
2022-12-08T11:45:53.692Z,1.92
2022-12-08T11:48:27.592Z,3.65
2022-12-08T11:51:18.174Z,2.47
2022-12-08T11:53:51.109Z,2.85
2022-12-08T11:56:25.197Z,2.08
2022-12-08T11:58:58.586Z,3.92
2022-12-08T12:01:26.707Z,5.22
2022-12-08T12:04:05.495Z,3.15
2022-12-08T12:06:54.382Z,4.45
2022-12-08T12:09:23.917Z,4.05
2022-12-08T12:12:09.789Z,4.25
2022-12-08T12:14:36.958Z,5.05
2022-12-08T12:17:08.204Z,3.13
2022-12-08T12:19:37.315Z,3.20
2022-12-08T12:24:36.071Z,2.70
2022-12-08T12:27:07.971Z,3.35
2022-12-08T12:29:37.681Z,2.75
2022-12-08T12:32:07.472Z,3.08
2022-12-08T12:34:55.117Z,3.42
2022-12-08T12:37:24.403Z,3.05
2022-12-08T12:39:56.911Z,3.33
2022-12-08T12:42:36.376Z,2.72
2022-12-08T12:45:23.363Z,3.35
2022-12-08T12:47:56.258Z,3.33
2022-12-08T12:50:30.165Z,4.55
2022-12-08T12:52:57.271Z,1.95
2022-12-08T12:55:25.945Z,2.80
2022-12-08T12:57:57.380Z,2.78
2022-12-08T13:00:26.527Z,2.88
2022-12-08T13:05:30.486Z,2.65
2022-12-08T13:08:00.005Z,1.98
2022-12-08T13:10:30.401Z,3.47
2022-12-08T13:13:12.875Z,3.55
2022-12-08T13:15:41.332Z,5.13
2022-12-08T13:18:17.401Z,2.72
2022-12-08T13:20:47.716Z,4.28
2022-12-08T13:23:26.878Z,4.28
2022-12-08T13:26:09.019Z,4.03
2022-12-08T13:28:56.087Z,6.53
2022-12-08T13:31:49.824Z,4.75
2022-12-08T13:34:41.281Z,7.05
2022-12-08T13:37:14.522Z,6.95
2022-12-08T13:39:41.702Z,5.50
2022-12-08T13:42:19.144Z,6.78
2022-12-08T13:47:41.441Z,7.28
2022-12-08T13:53:48.736Z,6.13
2022-12-08T13:59:07.317Z,4.88
2022-12-08T14:01:37.855Z,5.57
2022-12-08T14:04:34.152Z,5.32
2022-12-08T14:06:53.709Z,5.53
2022-12-08T14:09:22.542Z,4.68
2022-12-08T14:11:55.494Z,5.03
2022-12-08T14:15:01.408Z,5.00
2022-12-08T14:17:21.375Z,4.80
2022-12-08T14:19:55.280Z,5.55
2022-12-08T14:22:22.528Z,4.53
2022-12-08T14:24:51.206Z,5.30
2022-12-08T14:27:20.740Z,4.65
2022-12-08T14:29:52.806Z,5.07
2022-12-08T14:32:30.765Z,3.92
2022-12-08T14:35:00.999Z,6.40
2022-12-08T14:37:33.062Z,5.05
2022-12-08T14:40:07.904Z,5.03
2022-12-08T14:42:43.763Z,5.78
2022-12-08T14:45:12.936Z,4.38
2022-12-08T14:47:40.105Z,7.32
2022-12-08T14:50:27.287Z,7.18
2022-12-08T14:52:54.456Z,7.93
2022-12-08T14:55:21.629Z,9.15
2022-12-08T14:57:49.633Z,8.20
2022-12-08T15:00:20.673Z,10.52
2022-12-08T15:02:48.675Z,8.00
2022-12-08T15:05:18.014Z,9.48
2022-12-08T15:07:47.051Z,8.10
2022-12-08T15:12:42.142Z,6.28
2022-12-08T15:15:09.499Z,10.02
2022-12-08T15:17:42.605Z,7.50
2022-12-08T15:20:35.113Z,7.35
2022-12-08T15:23:02.924Z,16.52
2022-12-08T15:25:30.288Z,9.90
2022-12-08T15:27:58.059Z,7.47
2022-12-08T15:30:26.521Z,9.60
2022-12-08T15:32:55.920Z,7.32
2022-12-08T15:35:23.103Z,13.15
2022-12-08T15:37:50.313Z,55.75
2022-12-08T15:40:19.013Z,8.88
2022-12-08T15:42:46.207Z,7.82
2022-12-08T15:45:14.447Z,8.32
2022-12-08T15:47:43.928Z,7.47
2022-12-08T15:50:18.608Z,6.05
2022-12-08T15:52:45.876Z,5.53
2022-12-08T15:55:13.964Z,8.10
2022-12-08T15:58:31.189Z,6.50
2022-12-08T16:07:21.067Z,9.75
2022-12-08T16:09:33.257Z,8.35
2022-12-08T16:12:19.703Z,9.18
2022-12-08T16:15:48.595Z,6.30
2022-12-08T16:17:34.947Z,7.82
2022-12-08T16:20:02.751Z,7.97
2022-12-08T16:25:21.399Z,12.75
2022-12-08T16:28:01.293Z,22.70
2022-12-08T16:32:57.813Z,13.13
2022-12-08T16:35:24.977Z,11.50
2022-12-08T16:37:52.184Z,16.50
2022-12-08T16:40:19.601Z,22.08
2022-12-08T16:42:48.500Z,10.95
2022-12-08T16:45:19.972Z,12.38
2022-12-08T16:47:49.030Z,12.18
2022-12-08T16:50:17.851Z,14.40
2022-12-08T16:52:45.248Z,13.20
2022-12-08T16:55:13.328Z,13.43
2022-12-08T16:57:40.798Z,8.23
2022-12-08T17:00:09.244Z,17.27
2022-12-08T17:02:36.352Z,9.30
2022-12-08T17:05:03.659Z,7.45
2022-12-08T17:07:31.041Z,11.13
2022-12-08T17:09:58.873Z,8.63
2022-12-08T17:12:26.015Z,9.55
2022-12-08T17:14:53.093Z,8.85
2022-12-08T17:17:20.162Z,8.55
2022-12-08T17:19:47.352Z,9.45
2022-12-08T17:22:14.522Z,11.15
2022-12-08T17:24:41.613Z,14.60
2022-12-08T17:27:08.775Z,17.02
2022-12-08T17:29:36.055Z,12.93
2022-12-08T17:32:03.315Z,14.15
2022-12-08T17:34:30.491Z,13.73
2022-12-08T17:36:57.662Z,13.05
2022-12-08T17:39:25.296Z,10.45
2022-12-08T17:41:52.514Z,12.30
2022-12-08T17:44:20.064Z,13.50
2022-12-08T17:46:52.606Z,16.33
2022-12-08T17:49:24.803Z,16.75
2022-12-08T17:51:56.100Z,18.95
2022-12-08T17:54:23.611Z,16.10
2022-12-08T17:56:52.025Z,17.35
2022-12-08T17:59:19.480Z,17.20
2022-12-08T18:01:46.702Z,12.55
2022-12-08T18:04:13.901Z,14.25
2022-12-08T18:06:41.197Z,11.55
2022-12-08T18:09:08.817Z,13.32
2022-12-08T18:11:36.244Z,11.52
2022-12-08T18:14:09.492Z,12.82
2022-12-08T18:16:39.114Z,12.63
2022-12-08T18:19:06.982Z,10.52
2022-12-08T18:21:34.552Z,16.08
2022-12-08T18:24:01.738Z,14.05
2022-12-08T18:26:30.696Z,13.27
2022-12-08T18:28:58.274Z,13.18
2022-12-08T18:31:25.787Z,15.70
2022-12-08T18:33:53.486Z,14.00
2022-12-08T18:36:23.112Z,14.57
2022-12-08T18:38:50.466Z,16.20
2022-12-08T18:41:19.938Z,21.30
2022-12-08T18:43:47.560Z,19.27
2022-12-08T18:46:15.124Z,34.50
2022-12-08T18:48:47.196Z,27.58
2022-12-08T18:51:15.409Z,21.98
2022-12-08T18:53:42.577Z,18.20
2022-12-08T18:56:09.784Z,19.58
2022-12-08T18:58:37.221Z,20.38
2022-12-08T19:01:04.464Z,17.30
2022-12-08T19:03:31.650Z,18.75
2022-12-08T19:06:05.525Z,17.10
2022-12-08T19:08:32.985Z,20.13
2022-12-08T19:11:00.490Z,20.65
2022-12-08T19:13:28.035Z,21.83
2022-12-08T19:15:55.319Z,20.13
2022-12-08T19:18:22.697Z,18.42
2022-12-08T19:20:49.867Z,23.33
2022-12-08T19:23:17.031Z,24.73
2022-12-08T19:25:44.202Z,18.08
2022-12-08T19:28:11.343Z,20.65
2022-12-08T19:30:38.551Z,28.10
2022-12-08T19:33:06.162Z,20.08
2022-12-08T19:35:33.241Z,20.27
2022-12-08T19:38:00.478Z,19.73
2022-12-08T19:40:46.513Z,20.15
2022-12-08T19:43:33.934Z,21.63
2022-12-08T19:46:01.271Z,21.50
2022-12-08T19:48:29.507Z,19.33
2022-12-08T19:50:56.979Z,18.02
2022-12-08T19:53:27.125Z,16.77
2022-12-08T19:55:54.227Z,18.27
2022-12-08T19:58:21.396Z,20.73
2022-12-08T20:00:48.876Z,17.02
2022-12-08T20:03:20.462Z,21.27
2022-12-08T20:05:49.389Z,16.15
2022-12-08T20:08:16.905Z,21.77
2022-12-08T20:10:44.924Z,19.95
2022-12-08T20:13:31.041Z,18.95
2022-12-08T20:16:01.084Z,19.60
2022-12-08T20:18:28.816Z,20.90
2022-12-08T20:20:56.972Z,22.67
2022-12-08T20:23:24.149Z,22.23
2022-12-08T20:25:51.477Z,27.17
2022-12-08T20:28:19.233Z,21.70
2022-12-08T20:30:49.000Z,26.20
2022-12-08T20:33:16.707Z,24.98
2022-12-08T20:35:44.183Z,24.45
2022-12-08T20:38:13.660Z,23.45
2022-12-08T20:40:45.724Z,23.52
2022-12-08T20:43:14.294Z,22.42
2022-12-08T20:45:41.440Z,29.55
2022-12-08T20:48:08.734Z,30.17
2022-12-08T20:50:35.874Z,27.52
2022-12-08T20:53:03.074Z,24.73
2022-12-08T20:55:30.627Z,24.08
2022-12-08T20:57:57.949Z,26.67
2022-12-08T21:00:27.291Z,25.73
2022-12-08T21:02:56.782Z,22.80
2022-12-08T21:05:25.649Z,25.30
2022-12-08T21:07:53.173Z,24.30
2022-12-08T21:10:20.664Z,25.90
2022-12-08T21:12:47.937Z,28.83
2022-12-08T21:15:15.221Z,27.58
2022-12-08T21:17:42.622Z,25.42
2022-12-08T21:20:10.724Z,26.45
2022-12-08T21:22:39.953Z,29.17
2022-12-08T21:25:07.624Z,30.10
2022-12-08T21:27:34.893Z,23.55
2022-12-08T21:30:02.492Z,31.98
2022-12-08T21:32:30.747Z,27.65
2022-12-08T21:34:58.346Z,29.33
2022-12-08T21:37:25.567Z,29.05
2022-12-08T21:39:52.853Z,26.90
2022-12-08T21:42:38.970Z,26.90
2022-12-08T21:45:06.469Z,25.80
2022-12-08T21:47:33.678Z,28.88
2022-12-08T21:50:00.928Z,29.27
2022-12-08T21:52:28.186Z,27.10
2022-12-08T21:54:55.519Z,26.48
2022-12-08T21:57:22.818Z,34.17
2022-12-08T21:59:49.997Z,30.42
2022-12-08T22:02:22.126Z,31.77
2022-12-08T22:04:50.221Z,30.02
2022-12-08T22:07:17.742Z,31.00
2022-12-08T22:09:45.161Z,33.28
2022-12-08T22:12:12.582Z,32.50
2022-12-08T22:14:40.351Z,24.95
2022-12-08T22:17:07.995Z,27.90
2022-12-08T22:19:36.501Z,33.03
2022-12-08T22:22:03.853Z,25.27
2022-12-08T22:24:31.440Z,33.85
2022-12-08T22:26:58.756Z,19.75
2022-12-08T22:29:26.112Z,26.40
2022-12-08T22:31:53.476Z,26.50
2022-12-08T22:34:20.705Z,27.77
2022-12-08T22:36:49.046Z,25.05
2022-12-08T22:39:16.275Z,27.85
2022-12-08T22:41:45.891Z,19.88
2022-12-08T22:44:13.673Z,25.02
2022-12-08T22:46:41.039Z,31.30
2022-12-08T22:49:08.283Z,24.13
2022-12-08T22:51:38.775Z,29.35
2022-12-08T22:54:06.021Z,24.23
2022-12-08T22:56:33.124Z,26.70
2022-12-08T22:59:00.231Z,26.70
2022-12-08T23:01:31.826Z,26.77
2022-12-08T23:04:00.079Z,27.73
2022-12-08T23:06:28.006Z,29.80
2022-12-08T23:08:55.647Z,28.33
2022-12-08T23:11:23.949Z,30.20
2022-12-08T23:13:51.220Z,29.25
2022-12-08T23:16:18.585Z,20.52
2022-12-08T23:18:46.955Z,27.08
2022-12-08T23:21:15.399Z,24.92
2022-12-08T23:23:42.589Z,28.38
2022-12-08T23:26:17.518Z,28.00
2022-12-08T23:28:44.844Z,33.80
2022-12-08T23:31:12.087Z,22.48
2022-12-08T23:33:39.232Z,30.05
2022-12-08T23:36:07.946Z,30.73
2022-12-08T23:38:35.337Z,34.08
2022-12-08T23:41:03.534Z,29.10
2022-12-08T23:43:30.771Z,34.30
2022-12-08T23:45:58.076Z,34.47
2022-12-08T23:48:25.619Z,30.02
2022-12-08T23:50:52.878Z,32.10
2022-12-08T23:53:20.317Z,34.45
2022-12-08T23:55:47.591Z,32.95
2022-12-08T23:58:14.810Z,30.23
